Changsha Huanghua International Airport

Airport
ICAO code: 
ZGHA
IATA Code: 
HHA
Summary
ICAO Region: 
APAC
Territory: 
Location: 
Huanghua, Changsha County, Hunan
Serving: 
Changsha
Elevation: 
217 ft
Coordinates: 
Aerial View: 
28° 11' 48.001" N, 113° 13' 14.999" E
Metar
Observation
ZGHA 020800Z 35002MPS 310V050 CAVOK 17/M00 Q1024 NOSIG
Station
Changsha
Date/Time
2021-12-02 08:00:00
Wind direction
350°
Lowest cloud amount
clouds and visibility OK
Temperature
17°C
Dew point
-0°C
Humidity
31%
QNH
1024 hPa
Weather condition
n/a

Description

Changsha Huanghua International Airport is the airport serving Changsha, Hunan province, People's Republic of China, as well as nearby cities such as Zhuzhou and Xiangtan. Located about 20 km of the city centre in the town of Huanghua in Changsha County.

Climatology

Humid subtropical climate (Köppen climate classification Cfa.) Hot muggy summers with frequent thunderstorms. Winters are mild and precipitation during this season comes from mid-latitude cyclones. This climate type is quite common on the east coasts of continents.

Runways

Designator Length Width Surface Rops
18/36 2600 45 CON Yes/Yes
Airport map: 
Aerial View: 

SKYbrary Partners:

Safety knowledge contributed by: